Fontana Observed Data For Previous 48 Hours

Caption
Day and Hour Reservoir Elevation (behind dam)* Tailwater Elevation (below dam)* Average Hourly Discharge*
9/20/2018 2 AM EDT 1,689.19 1,275.98 152
9/20/2018 3 AM EDT 1,689.22 1,275.71 0
9/20/2018 4 AM EDT 1,689.24 1,275.60 0
9/20/2018 5 AM EDT 1,689.25 1,275.53 0
9/20/2018 6 AM EDT 1,689.26 1,275.48 0
9/20/2018 7 AM EDT 1,689.29 1,275.44 0
9/20/2018 8 AM EDT 1,689.30 1,274.70 0
9/20/2018 9 AM EDT 1,689.31 1,275.62 156
9/20/2018 10 AM EDT 1,689.31 1,279.42 5,585
9/20/2018 11 AM EDT 1,689.27 1,279.45 6,163
9/20/2018 12 PM EDT 1,689.23 1,279.44 6,504
9/20/2018 1 PM EDT 1,689.21 1,279.50 6,501
9/20/2018 2 PM EDT 1,689.17 1,279.58 6,494
9/20/2018 3 PM EDT 1,689.13 1,279.43 6,501
9/20/2018 4 PM EDT 1,689.10 1,279.46 6,509
9/20/2018 5 PM EDT 1,689.08 1,279.45 6,501
9/20/2018 6 PM EDT 1,689.04 1,279.48 6,505
9/20/2018 7 PM EDT 1,689.01 1,279.52 6,506
9/20/2018 8 PM EDT 1,688.97 1,279.41 6,507
9/20/2018 9 PM EDT 1,688.93 1,279.50 6,507
9/20/2018 10 PM EDT 1,688.90 1,279.47 6,513
9/20/2018 11 PM EDT 1,688.86 1,279.48 6,503
9/21/2018 12 AM EDT 1,688.82 1,279.54 6,511
9/21/2018 1 AM EDT 1,688.83 1,277.19 2,899
9/21/2018 2 AM EDT 1,688.84 1,275.87 58
9/21/2018 3 AM EDT 1,688.85 1,275.73 0
9/21/2018 4 AM EDT 1,688.87 1,275.63 0
9/21/2018 5 AM EDT 1,688.88 1,275.55 0
9/21/2018 6 AM EDT 1,688.90 1,275.51 0
9/21/2018 7 AM EDT 1,688.92 1,275.47 0
9/21/2018 8 AM EDT 1,688.92 1,275.86 150
9/21/2018 9 AM EDT 1,688.94 1,277.11 2,715
9/21/2018 10 AM EDT 1,688.92 1,278.78 5,578
9/21/2018 11 AM EDT 1,688.85 1,279.41 5,617
9/21/2018 12 PM EDT 1,688.84 1,279.44 6,504
9/21/2018 1 PM EDT 1,688.82 1,279.44 6,513
9/21/2018 2 PM EDT 1,688.77 1,279.54 6,506
9/21/2018 3 PM EDT 1,688.73 1,279.52 6,501
9/21/2018 4 PM EDT 1,688.72 1,279.44 6,511
9/21/2018 5 PM EDT 1,688.68 1,279.46 6,511
9/21/2018 6 PM EDT 1,688.63 1,279.47 6,509
9/21/2018 7 PM EDT 1,688.61 1,279.44 6,513
9/21/2018 8 PM EDT 1,688.57 1,279.44 6,519
9/21/2018 9 PM EDT 1,688.54 1,279.45 6,511
9/21/2018 10 PM EDT 1,688.49 1,279.06 5,491
9/21/2018 11 PM EDT 1,688.49 1,278.83 5,670
9/22/2018 12 AM EDT 1,688.45 1,278.79 5,568
9/22/2018 1 AM EDT 1,688.43 1,277.01 2,792
9/22/2018 2 AM EDT 1,688.46 1,274.11 56
9/22/2018 3 AM EDT 1,688.48 1,273.95 0
9/22/2018 4 AM EDT 1,688.50 1,273.86 0
9/22/2018 5 AM EDT 1,688.50 1,273.80 0
9/22/2018 6 AM EDT 1,688.52 1,273.79 0
9/22/2018 7 AM EDT 1,688.55 1,273.79 0
9/22/2018 8 AM EDT 1,688.55 1,273.82 0
9/22/2018 9 AM EDT 1,688.56 1,273.83 0
9/22/2018 10 AM EDT 1,688.59 1,275.54 151
9/22/2018 11 AM EDT 1,688.59 1,277.19 3,053
9/22/2018 12 PM EDT 1,688.55 1,279.36 5,779
9/22/2018 1 PM EDT 1,688.51 1,279.50 6,505
9/22/2018 2 PM EDT 1,688.49 1,279.44 6,517
9/22/2018 3 PM EDT 1,688.46 1,279.43 6,512
9/22/2018 4 PM EDT 1,688.41 1,279.47 6,505
9/22/2018 5 PM EDT 1,688.37 1,279.45 6,515

Elevations are in feet above sea level. Discharges are in cubic feet per second and are reported at the end of the hour.